sensor_id;sensor_type;location;lat;lon;timestamp;pressure;altitude;pressure_sealevel;temperature
68911;BMP180;55953;51.650;-0.522;2023-05-06T00:01:22;100573.80;;;12.80
68911;BMP180;55953;51.650;-0.522;2023-05-06T00:03:51;100573.40;;;12.84
68911;BMP180;55953;51.650;-0.522;2023-05-06T00:06:19;100573.60;;;12.80
68911;BMP180;55953;51.650;-0.522;2023-05-06T00:08:47;100574.20;;;12.80
68911;BMP180;55953;51.650;-0.522;2023-05-06T00:11:15;100573.20;;;12.70
68911;BMP180;55953;51.650;-0.522;2023-05-06T00:13:43;100570.20;;;12.70
68911;BMP180;55953;51.650;-0.522;2023-05-06T00:16:11;100569.60;;;12.70
68911;BMP180;55953;51.650;-0.522;2023-05-06T00:18:39;100571.00;;;12.60
68911;BMP180;55953;51.650;-0.522;2023-05-06T00:21:08;100575.20;;;12.60
68911;BMP180;55953;51.650;-0.522;2023-05-06T00:23:36;100576.00;;;12.60
68911;BMP180;55953;51.650;-0.522;2023-05-06T00:26:05;100578.60;;;12.50
68911;BMP180;55953;51.650;-0.522;2023-05-06T00:28:33;100572.60;;;12.60
68911;BMP180;55953;51.650;-0.522;2023-05-06T00:31:01;100573.00;;;12.60
68911;BMP180;55953;51.650;-0.522;2023-05-06T00:33:29;100573.80;;;12.60
68911;BMP180;55953;51.650;-0.522;2023-05-06T00:35:57;100569.40;;;12.60
68911;BMP180;55953;51.650;-0.522;2023-05-06T00:38:25;100562.60;;;12.68
68911;BMP180;55953;51.650;-0.522;2023-05-06T00:40:54;100559.40;;;12.70
68911;BMP180;55953;51.650;-0.522;2023-05-06T00:43:22;100555.60;;;12.70
68911;BMP180;55953;51.650;-0.522;2023-05-06T00:45:50;100554.00;;;12.80
68911;BMP180;55953;51.650;-0.522;2023-05-06T00:48:18;100550.20;;;12.80
68911;BMP180;55953;51.650;-0.522;2023-05-06T00:50:46;100548.60;;;12.90
68911;BMP180;55953;51.650;-0.522;2023-05-06T00:53:18;100548.20;;;13.00
68911;BMP180;55953;51.650;-0.522;2023-05-06T00:55:48;100544.40;;;13.10
68911;BMP180;55953;51.650;-0.522;2023-05-06T00:58:18;100536.60;;;13.10
68911;BMP180;55953;51.650;-0.522;2023-05-06T01:00:49;100536.40;;;13.10
68911;BMP180;55953;51.650;-0.522;2023-05-06T01:03:19;100534.80;;;13.00
68911;BMP180;55953;51.650;-0.522;2023-05-06T01:08:57;100540.20;;;12.90
68911;BMP180;55953;51.650;-0.522;2023-05-06T01:11:54;100536.80;;;12.90
68911;BMP180;55953;51.650;-0.522;2023-05-06T01:14:52;100530.00;;;12.80
68911;BMP180;55953;51.650;-0.522;2023-05-06T01:17:26;100530.60;;;12.80
68911;BMP180;55953;51.650;-0.522;2023-05-06T01:19:58;100532.80;;;12.80
68911;BMP180;55953;51.650;-0.522;2023-05-06T01:22:29;100530.00;;;12.70
68911;BMP180;55953;51.650;-0.522;2023-05-06T01:24:57;100523.20;;;12.70
68911;BMP180;55953;51.650;-0.522;2023-05-06T01:27:26;100527.40;;;12.70
68911;BMP180;55953;51.650;-0.522;2023-05-06T01:29:54;100523.00;;;12.60
68911;BMP180;55953;51.650;-0.522;2023-05-06T01:35:25;100515.00;;;12.62
68911;BMP180;55953;51.650;-0.522;2023-05-06T01:40:44;100513.80;;;12.50
68911;BMP180;55953;51.650;-0.522;2023-05-06T01:43:15;100515.80;;;12.50
68911;BMP180;55953;51.650;-0.522;2023-05-06T01:45:45;100516.20;;;12.40
68911;BMP180;55953;51.650;-0.522;2023-05-06T01:48:31;100516.60;;;12.40
68911;BMP180;55953;51.650;-0.522;2023-05-06T01:51:00;100518.60;;;12.40
68911;BMP180;55953;51.650;-0.522;2023-05-06T01:53:30;100520.80;;;12.30
68911;BMP180;55953;51.650;-0.522;2023-05-06T01:56:00;100518.20;;;12.30
68911;BMP180;55953;51.650;-0.522;2023-05-06T01:58:28;100519.20;;;12.30
68911;BMP180;55953;51.650;-0.522;2023-05-06T02:00:56;100528.00;;;12.20
68911;BMP180;55953;51.650;-0.522;2023-05-06T02:03:24;100528.00;;;12.16
68911;BMP180;55953;51.650;-0.522;2023-05-06T02:05:52;100530.40;;;12.02
68911;BMP180;55953;51.650;-0.522;2023-05-06T02:08:23;100525.80;;;12.02
68911;BMP180;55953;51.650;-0.522;2023-05-06T02:10:51;100519.80;;;12.00
68911;BMP180;55953;51.650;-0.522;2023-05-06T02:13:20;100513.60;;;11.94
68911;BMP180;55953;51.650;-0.522;2023-05-06T02:15:52;100516.00;;;12.00
68911;BMP180;55953;51.650;-0.522;2023-05-06T02:18:22;100520.00;;;11.90
68911;BMP180;55953;51.650;-0.522;2023-05-06T02:20:50;100514.00;;;11.90
68911;BMP180;55953;51.650;-0.522;2023-05-06T02:23:18;100515.60;;;11.80
68911;BMP180;55953;51.650;-0.522;2023-05-06T02:25:46;100517.60;;;11.80
68911;BMP180;55953;51.650;-0.522;2023-05-06T02:28:14;100516.60;;;11.80
68911;BMP180;55953;51.650;-0.522;2023-05-06T02:30:42;100517.00;;;11.80
68911;BMP180;55953;51.650;-0.522;2023-05-06T02:33:10;100513.80;;;11.70
68911;BMP180;55953;51.650;-0.522;2023-05-06T02:35:38;100514.80;;;11.70
68911;BMP180;55953;51.650;-0.522;2023-05-06T02:38:06;100517.80;;;11.70
68911;BMP180;55953;51.650;-0.522;2023-05-06T02:40:34;100514.60;;;11.70
68911;BMP180;55953;51.650;-0.522;2023-05-06T02:43:01;100520.80;;;11.70
68911;BMP180;55953;51.650;-0.522;2023-05-06T02:45:29;100513.20;;;11.70
68911;BMP180;55953;51.650;-0.522;2023-05-06T02:47:58;100512.20;;;11.70
68911;BMP180;55953;51.650;-0.522;2023-05-06T02:50:27;100510.80;;;11.70
68911;BMP180;55953;51.650;-0.522;2023-05-06T02:52:55;100507.80;;;11.70
68911;BMP180;55953;51.650;-0.522;2023-05-06T02:55:23;100513.60;;;11.70
68911;BMP180;55953;51.650;-0.522;2023-05-06T02:57:50;100514.60;;;11.70
68911;BMP180;55953;51.650;-0.522;2023-05-06T03:00:19;100509.60;;;11.70
68911;BMP180;55953;51.650;-0.522;2023-05-06T03:02:47;100508.40;;;11.70
68911;BMP180;55953;51.650;-0.522;2023-05-06T03:05:15;100508.00;;;11.70
68911;BMP180;55953;51.650;-0.522;2023-05-06T03:07:43;100510.40;;;11.70
68911;BMP180;55953;51.650;-0.522;2023-05-06T03:10:11;100509.00;;;11.70
68911;BMP180;55953;51.650;-0.522;2023-05-06T03:12:39;100506.80;;;11.70
68911;BMP180;55953;51.650;-0.522;2023-05-06T03:15:08;100502.60;;;11.70
68911;BMP180;55953;51.650;-0.522;2023-05-06T03:17:36;100506.00;;;11.76
68911;BMP180;55953;51.650;-0.522;2023-05-06T03:20:07;100506.40;;;11.70
68911;BMP180;55953;51.650;-0.522;2023-05-06T03:22:36;100512.20;;;11.70
68911;BMP180;55953;51.650;-0.522;2023-05-06T03:25:05;100503.40;;;11.60
68911;BMP180;55953;51.650;-0.522;2023-05-06T03:27:33;100509.80;;;11.60
68911;BMP180;55953;51.650;-0.522;2023-05-06T03:30:07;100504.20;;;11.60
68911;BMP180;55953;51.650;-0.522;2023-05-06T03:32:36;100506.40;;;11.60
68911;BMP180;55953;51.650;-0.522;2023-05-06T03:35:07;100507.20;;;11.64
68911;BMP180;55953;51.650;-0.522;2023-05-06T03:37:35;100502.80;;;11.60
68911;BMP180;55953;51.650;-0.522;2023-05-06T03:40:04;100503.60;;;11.60
68911;BMP180;55953;51.650;-0.522;2023-05-06T03:42:34;100505.80;;;11.60
68911;BMP180;55953;51.650;-0.522;2023-05-06T03:45:04;100503.20;;;11.60
68911;BMP180;55953;51.650;-0.522;2023-05-06T03:47:33;100497.20;;;11.66
68911;BMP180;55953;51.650;-0.522;2023-05-06T03:50:02;100501.20;;;11.70
68911;BMP180;55953;51.650;-0.522;2023-05-06T03:52:30;100494.00;;;11.70
68911;BMP180;55953;51.650;-0.522;2023-05-06T03:54:58;100495.20;;;11.80
68911;BMP180;55953;51.650;-0.522;2023-05-06T03:57:26;100496.20;;;11.90
68911;BMP180;55953;51.650;-0.522;2023-05-06T03:59:55;100497.60;;;11.90
68911;BMP180;55953;51.650;-0.522;2023-05-06T04:02:23;100501.20;;;11.90
68911;BMP180;55953;51.650;-0.522;2023-05-06T04:04:52;100500.40;;;12.00
68911;BMP180;55953;51.650;-0.522;2023-05-06T04:07:19;100498.40;;;12.10
68911;BMP180;55953;51.650;-0.522;2023-05-06T04:09:47;100498.40;;;12.10
68911;BMP180;55953;51.650;-0.522;2023-05-06T04:12:17;100490.60;;;12.10
68911;BMP180;55953;51.650;-0.522;2023-05-06T04:14:47;100492.80;;;12.20
68911;BMP180;55953;51.650;-0.522;2023-05-06T04:17:15;100485.60;;;12.20
68911;BMP180;55953;51.650;-0.522;2023-05-06T04:19:43;100484.40;;;12.20
68911;BMP180;55953;51.650;-0.522;2023-05-06T04:22:11;100486.40;;;12.20
68911;BMP180;55953;51.650;-0.522;2023-05-06T04:24:39;100482.40;;;12.22
68911;BMP180;55953;51.650;-0.522;2023-05-06T04:27:13;100482.60;;;12.20
68911;BMP180;55953;51.650;-0.522;2023-05-06T04:29:43;100483.80;;;12.14
68911;BMP180;55953;51.650;-0.522;2023-05-06T04:32:11;100486.40;;;12.22
68911;BMP180;55953;51.650;-0.522;2023-05-06T04:34:39;100488.80;;;12.30
68911;BMP180;55953;51.650;-0.522;2023-05-06T04:37:08;100490.60;;;12.26
68911;BMP180;55953;51.650;-0.522;2023-05-06T04:39:50;100487.80;;;12.20
68911;BMP180;55953;51.650;-0.522;2023-05-06T04:42:18;100493.40;;;12.20
68911;BMP180;55953;51.650;-0.522;2023-05-06T04:44:51;100491.40;;;12.20
68911;BMP180;55953;51.650;-0.522;2023-05-06T04:47:22;100494.60;;;12.20
68911;BMP180;55953;51.650;-0.522;2023-05-06T04:49:51;100497.80;;;12.28
68911;BMP180;55953;51.650;-0.522;2023-05-06T04:52:19;100495.00;;;12.30
68911;BMP180;55953;51.650;-0.522;2023-05-06T04:54:48;100494.00;;;12.42
68911;BMP180;55953;51.650;-0.522;2023-05-06T04:57:16;100487.60;;;12.40
68911;BMP180;55953;51.650;-0.522;2023-05-06T04:59:44;100494.80;;;12.40
68911;BMP180;55953;51.650;-0.522;2023-05-06T05:02:13;100496.20;;;12.46
68911;BMP180;55953;51.650;-0.522;2023-05-06T05:04:41;100499.00;;;12.50
68911;BMP180;55953;51.650;-0.522;2023-05-06T05:07:09;100501.40;;;12.58
68911;BMP180;55953;51.650;-0.522;2023-05-06T05:09:37;100498.60;;;12.50
68911;BMP180;55953;51.650;-0.522;2023-05-06T05:12:06;100500.00;;;12.50
68911;BMP180;55953;51.650;-0.522;2023-05-06T05:14:37;100497.40;;;12.60
68911;BMP180;55953;51.650;-0.522;2023-05-06T05:17:05;100498.60;;;12.70
68911;BMP180;55953;51.650;-0.522;2023-05-06T05:19:34;100503.00;;;12.70
68911;BMP180;55953;51.650;-0.522;2023-05-06T05:22:03;100501.80;;;12.70
68911;BMP180;55953;51.650;-0.522;2023-05-06T05:24:32;100503.60;;;12.80
68911;BMP180;55953;51.650;-0.522;2023-05-06T05:27:00;100502.40;;;12.80
68911;BMP180;55953;51.650;-0.522;2023-05-06T05:29:29;100507.20;;;12.80
68911;BMP180;55953;51.650;-0.522;2023-05-06T05:31:57;100508.00;;;12.90
68911;BMP180;55953;51.650;-0.522;2023-05-06T05:34:25;100510.00;;;12.90
68911;BMP180;55953;51.650;-0.522;2023-05-06T05:36:54;100506.60;;;13.00
68911;BMP180;55953;51.650;-0.522;2023-05-06T05:39:24;100506.40;;;13.00
68911;BMP180;55953;51.650;-0.522;2023-05-06T05:41:52;100506.20;;;13.00
68911;BMP180;55953;51.650;-0.522;2023-05-06T05:44:20;100504.60;;;13.00
68911;BMP180;55953;51.650;-0.522;2023-05-06T05:46:49;100508.60;;;13.00
68911;BMP180;55953;51.650;-0.522;2023-05-06T05:49:18;100507.40;;;13.10
68911;BMP180;55953;51.650;-0.522;2023-05-06T05:51:47;100510.40;;;13.20
68911;BMP180;55953;51.650;-0.522;2023-05-06T05:54:16;100507.40;;;13.30
68911;BMP180;55953;51.650;-0.522;2023-05-06T05:56:44;100514.00;;;13.34
68911;BMP180;55953;51.650;-0.522;2023-05-06T05:59:12;100510.60;;;13.40
68911;BMP180;55953;51.650;-0.522;2023-05-06T06:01:40;100520.60;;;13.42
68911;BMP180;55953;51.650;-0.522;2023-05-06T06:04:08;100520.40;;;13.50
68911;BMP180;55953;51.650;-0.522;2023-05-06T06:06:36;100523.00;;;13.50
68911;BMP180;55953;51.650;-0.522;2023-05-06T06:09:05;100524.60;;;13.50
68911;BMP180;55953;51.650;-0.522;2023-05-06T06:11:33;100526.00;;;13.50
68911;BMP180;55953;51.650;-0.522;2023-05-06T06:14:01;100524.60;;;13.68
68911;BMP180;55953;51.650;-0.522;2023-05-06T06:16:29;100522.00;;;13.80
68911;BMP180;55953;51.650;-0.522;2023-05-06T06:18:57;100525.80;;;14.00
68911;BMP180;55953;51.650;-0.522;2023-05-06T06:21:27;100525.40;;;14.02
68911;BMP180;55953;51.650;-0.522;2023-05-06T06:23:55;100519.60;;;14.22
68911;BMP180;55953;51.650;-0.522;2023-05-06T06:26:23;100516.20;;;14.40
68911;BMP180;55953;51.650;-0.522;2023-05-06T06:28:51;100524.00;;;14.58
68911;BMP180;55953;51.650;-0.522;2023-05-06T06:31:19;100515.60;;;14.70
68911;BMP180;55953;51.650;-0.522;2023-05-06T06:33:47;100515.00;;;14.82
68911;BMP180;55953;51.650;-0.522;2023-05-06T06:36:15;100522.20;;;14.98
68911;BMP180;55953;51.650;-0.522;2023-05-06T06:38:43;100525.60;;;15.10
68911;BMP180;55953;51.650;-0.522;2023-05-06T06:41:10;100522.80;;;15.22
68911;BMP180;55953;51.650;-0.522;2023-05-06T06:43:38;100519.20;;;15.30
68911;BMP180;55953;51.650;-0.522;2023-05-06T06:46:16;100524.40;;;15.40
68911;BMP180;55953;51.650;-0.522;2023-05-06T06:48:44;100529.00;;;15.50
68911;BMP180;55953;51.650;-0.522;2023-05-06T06:51:12;100528.20;;;15.50
68911;BMP180;55953;51.650;-0.522;2023-05-06T06:53:40;100530.60;;;15.40
68911;BMP180;55953;51.650;-0.522;2023-05-06T06:56:10;100531.60;;;15.50
68911;BMP180;55953;51.650;-0.522;2023-05-06T06:58:41;100531.80;;;15.60
68911;BMP180;55953;51.650;-0.522;2023-05-06T07:01:09;100526.20;;;15.70
68911;BMP180;55953;51.650;-0.522;2023-05-06T07:03:37;100526.20;;;15.72
68911;BMP180;55953;51.650;-0.522;2023-05-06T07:06:07;100526.40;;;15.80
68911;BMP180;55953;51.650;-0.522;2023-05-06T07:08:34;100527.40;;;15.80
68911;BMP180;55953;51.650;-0.522;2023-05-06T07:11:02;100527.20;;;15.90
68911;BMP180;55953;51.650;-0.522;2023-05-06T07:13:30;100524.80;;;16.00
68911;BMP180;55953;51.650;-0.522;2023-05-06T07:15:58;100517.80;;;16.10
68911;BMP180;55953;51.650;-0.522;2023-05-06T07:18:26;100519.20;;;16.18
68911;BMP180;55953;51.650;-0.522;2023-05-06T07:20:54;100524.20;;;16.20
68911;BMP180;55953;51.650;-0.522;2023-05-06T07:23:22;100526.40;;;16.26
68911;BMP180;55953;51.650;-0.522;2023-05-06T07:25:51;100525.20;;;16.20
68911;BMP180;55953;51.650;-0.522;2023-05-06T07:28:19;100521.40;;;16.10
68911;BMP180;55953;51.650;-0.522;2023-05-06T07:30:47;100521.00;;;16.10
68911;BMP180;55953;51.650;-0.522;2023-05-06T07:33:18;100521.40;;;16.10
68911;BMP180;55953;51.650;-0.522;2023-05-06T07:35:45;100527.80;;;16.00
68911;BMP180;55953;51.650;-0.522;2023-05-06T07:38:13;100526.20;;;16.00
68911;BMP180;55953;51.650;-0.522;2023-05-06T07:40:41;100521.40;;;15.92
68911;BMP180;55953;51.650;-0.522;2023-05-06T07:43:09;100523.60;;;15.90
68911;BMP180;55953;51.650;-0.522;2023-05-06T07:45:37;100525.80;;;15.80
68911;BMP180;55953;51.650;-0.522;2023-05-06T07:48:05;100533.20;;;15.80
68911;BMP180;55953;51.650;-0.522;2023-05-06T07:50:33;100529.00;;;15.80
68911;BMP180;55953;51.650;-0.522;2023-05-06T07:53:01;100529.00;;;15.70
68911;BMP180;55953;51.650;-0.522;2023-05-06T07:55:28;100534.00;;;15.60
68911;BMP180;55953;51.650;-0.522;2023-05-06T07:57:56;100536.00;;;15.70
68911;BMP180;55953;51.650;-0.522;2023-05-06T08:00:24;100537.80;;;15.66
68911;BMP180;55953;51.650;-0.522;2023-05-06T08:02:52;100537.20;;;15.64
68911;BMP180;55953;51.650;-0.522;2023-05-06T08:05:20;100538.60;;;15.64
68911;BMP180;55953;51.650;-0.522;2023-05-06T08:07:48;100536.40;;;15.70
68911;BMP180;55953;51.650;-0.522;2023-05-06T08:10:16;100536.60;;;15.60
68911;BMP180;55953;51.650;-0.522;2023-05-06T08:12:45;100533.60;;;15.60
68911;BMP180;55953;51.650;-0.522;2023-05-06T08:15:14;100534.20;;;15.52
68911;BMP180;55953;51.650;-0.522;2023-05-06T08:17:42;100532.80;;;15.50
68911;BMP180;55953;51.650;-0.522;2023-05-06T08:20:10;100530.20;;;15.50
68911;BMP180;55953;51.650;-0.522;2023-05-06T08:22:38;100533.60;;;15.60
68911;BMP180;55953;51.650;-0.522;2023-05-06T08:25:07;100534.20;;;15.70
68911;BMP180;55953;51.650;-0.522;2023-05-06T08:27:36;100537.40;;;15.70
68911;BMP180;55953;51.650;-0.522;2023-05-06T08:30:04;100536.60;;;15.70
68911;BMP180;55953;51.650;-0.522;2023-05-06T08:32:32;100534.80;;;15.70
68911;BMP180;55953;51.650;-0.522;2023-05-06T08:35:00;100534.20;;;15.70
68911;BMP180;55953;51.650;-0.522;2023-05-06T08:37:28;100536.00;;;15.60
68911;BMP180;55953;51.650;-0.522;2023-05-06T08:39:57;100540.00;;;15.50
68911;BMP180;55953;51.650;-0.522;2023-05-06T08:42:27;100542.60;;;15.40
68911;BMP180;55953;51.650;-0.522;2023-05-06T08:44:57;100538.00;;;15.30
68911;BMP180;55953;51.650;-0.522;2023-05-06T08:47:25;100539.40;;;15.30
68911;BMP180;55953;51.650;-0.522;2023-05-06T08:49:53;100540.80;;;15.30
68911;BMP180;55953;51.650;-0.522;2023-05-06T08:52:21;100544.20;;;15.30
68911;BMP180;55953;51.650;-0.522;2023-05-06T08:54:50;100544.00;;;15.30
68911;BMP180;55953;51.650;-0.522;2023-05-06T08:57:21;100543.60;;;15.26
68911;BMP180;55953;51.650;-0.522;2023-05-06T08:59:49;100543.40;;;15.30
68911;BMP180;55953;51.650;-0.522;2023-05-06T09:02:18;100542.40;;;15.30
68911;BMP180;55953;51.650;-0.522;2023-05-06T09:04:48;100545.60;;;15.40
68911;BMP180;55953;51.650;-0.522;2023-05-06T09:07:16;100541.00;;;15.50
68911;BMP180;55953;51.650;-0.522;2023-05-06T09:09:45;100534.20;;;15.62
68911;BMP180;55953;51.650;-0.522;2023-05-06T09:12:13;100539.20;;;15.82
68911;BMP180;55953;51.650;-0.522;2023-05-06T09:14:42;100536.20;;;15.90
68911;BMP180;55953;51.650;-0.522;2023-05-06T09:17:22;100537.00;;;15.96
68911;BMP180;55953;51.650;-0.522;2023-05-06T09:19:52;100535.80;;;15.90
68911;BMP180;55953;51.650;-0.522;2023-05-06T09:22:30;100536.80;;;15.90
68911;BMP180;55953;51.650;-0.522;2023-05-06T09:24:58;100532.80;;;15.80
68911;BMP180;55953;51.650;-0.522;2023-05-06T09:27:31;100532.20;;;15.78
68911;BMP180;55953;51.650;-0.522;2023-05-06T09:30:05;100530.80;;;15.62
68911;BMP180;55953;51.650;-0.522;2023-05-06T09:32:34;100535.40;;;15.52
68911;BMP180;55953;51.650;-0.522;2023-05-06T09:35:07;100536.20;;;15.40
68911;BMP180;55953;51.650;-0.522;2023-05-06T09:37:36;100536.00;;;15.50
68911;BMP180;55953;51.650;-0.522;2023-05-06T09:40:05;100531.40;;;15.60
68911;BMP180;55953;51.650;-0.522;2023-05-06T09:42:33;100530.80;;;15.80
68911;BMP180;55953;51.650;-0.522;2023-05-06T09:45:04;100526.40;;;16.00
68911;BMP180;55953;51.650;-0.522;2023-05-06T09:47:33;100524.40;;;16.10
68911;BMP180;55953;51.650;-0.522;2023-05-06T09:50:03;100526.20;;;16.20
68911;BMP180;55953;51.650;-0.522;2023-05-06T09:52:31;100524.40;;;16.30
68911;BMP180;55953;51.650;-0.522;2023-05-06T09:55:00;100523.40;;;16.40
68911;BMP180;55953;51.650;-0.522;2023-05-06T09:57:31;100523.80;;;16.40
68911;BMP180;55953;51.650;-0.522;2023-05-06T10:00:01;100522.40;;;16.40
68911;BMP180;55953;51.650;-0.522;2023-05-06T10:02:45;100523.60;;;16.40
68911;BMP180;55953;51.650;-0.522;2023-05-06T10:05:15;100516.80;;;16.40
68911;BMP180;55953;51.650;-0.522;2023-05-06T10:07:46;100521.20;;;16.40
68911;BMP180;55953;51.650;-0.522;2023-05-06T10:10:15;100518.00;;;16.40
68911;BMP180;55953;51.650;-0.522;2023-05-06T10:12:44;100511.60;;;16.40
68911;BMP180;55953;51.650;-0.522;2023-05-06T10:15:13;100518.60;;;16.40
68911;BMP180;55953;51.650;-0.522;2023-05-06T10:17:43;100515.00;;;16.40
68911;BMP180;55953;51.650;-0.522;2023-05-06T10:20:15;100512.40;;;16.40
68911;BMP180;55953;51.650;-0.522;2023-05-06T10:25:36;100509.60;;;16.10
68911;BMP180;55953;51.650;-0.522;2023-05-06T10:28:07;100510.60;;;16.00
68911;BMP180;55953;51.650;-0.522;2023-05-06T10:30:39;100509.80;;;15.90
68911;BMP180;55953;51.650;-0.522;2023-05-06T10:33:10;100505.80;;;15.80
68911;BMP180;55953;51.650;-0.522;2023-05-06T10:38:16;100499.20;;;15.76
68911;BMP180;55953;51.650;-0.522;2023-05-06T10:40:47;100494.00;;;15.80
68911;BMP180;55953;51.650;-0.522;2023-05-06T10:43:42;100493.40;;;15.70
68911;BMP180;55953;51.650;-0.522;2023-05-06T10:51:42;100491.00;;;15.40
68911;BMP180;55953;51.650;-0.522;2023-05-06T10:54:21;100487.80;;;15.40
68911;BMP180;55953;51.650;-0.522;2023-05-06T10:59:26;100487.60;;;15.60
68911;BMP180;55953;51.650;-0.522;2023-05-06T11:04:30;100482.60;;;15.70
68911;BMP180;55953;51.650;-0.522;2023-05-06T11:07:21;100481.00;;;15.66
68911;BMP180;55953;51.650;-0.522;2023-05-06T11:10:09;100476.20;;;15.70
68911;BMP180;55953;51.650;-0.522;2023-05-06T11:12:51;100475.00;;;15.80
68911;BMP180;55953;51.650;-0.522;2023-05-06T11:15:25;100478.60;;;15.80
68911;BMP180;55953;51.650;-0.522;2023-05-06T11:17:55;100481.00;;;15.90
68911;BMP180;55953;51.650;-0.522;2023-05-06T11:20:25;100474.40;;;15.90
68911;BMP180;55953;51.650;-0.522;2023-05-06T11:22:53;100471.80;;;16.00
68911;BMP180;55953;51.650;-0.522;2023-05-06T11:25:41;100472.40;;;16.12
68911;BMP180;55953;51.650;-0.522;2023-05-06T11:28:11;100476.00;;;16.20
68911;BMP180;55953;51.650;-0.522;2023-05-06T11:30:53;100474.20;;;16.20
68911;BMP180;55953;51.650;-0.522;2023-05-06T11:33:24;100479.80;;;16.20
68911;BMP180;55953;51.650;-0.522;2023-05-06T11:35:54;100473.80;;;16.02
68911;BMP180;55953;51.650;-0.522;2023-05-06T11:38:22;100476.60;;;16.00
68911;BMP180;55953;51.650;-0.522;2023-05-06T11:40:50;100471.40;;;16.00
68911;BMP180;55953;51.650;-0.522;2023-05-06T11:43:18;100474.80;;;16.00
68911;BMP180;55953;51.650;-0.522;2023-05-06T11:45:47;100468.40;;;16.10
68911;BMP180;55953;51.650;-0.522;2023-05-06T11:48:17;100467.60;;;16.10
68911;BMP180;55953;51.650;-0.522;2023-05-06T11:50:49;100464.80;;;16.10
68911;BMP180;55953;51.650;-0.522;2023-05-06T11:53:22;100465.20;;;16.10
68911;BMP180;55953;51.650;-0.522;2023-05-06T11:55:53;100469.40;;;16.10
68911;BMP180;55953;51.650;-0.522;2023-05-06T11:58:26;100469.20;;;16.00
68911;BMP180;55953;51.650;-0.522;2023-05-06T12:00:58;100473.00;;;15.90
68911;BMP180;55953;51.650;-0.522;2023-05-06T12:03:28;100470.80;;;15.80
68911;BMP180;55953;51.650;-0.522;2023-05-06T12:05:58;100465.40;;;15.80
68911;BMP180;55953;51.650;-0.522;2023-05-06T12:08:32;100461.40;;;15.80
68911;BMP180;55953;51.650;-0.522;2023-05-06T12:11:06;100464.00;;;15.66
68911;BMP180;55953;51.650;-0.522;2023-05-06T12:13:35;100461.60;;;15.62
68911;BMP180;55953;51.650;-0.522;2023-05-06T12:16:04;100463.00;;;15.60
68911;BMP180;55953;51.650;-0.522;2023-05-06T12:18:34;100462.60;;;15.60
68911;BMP180;55953;51.650;-0.522;2023-05-06T12:21:03;100456.60;;;15.60
68911;BMP180;55953;51.650;-0.522;2023-05-06T12:23:31;100456.40;;;15.60
68911;BMP180;55953;51.650;-0.522;2023-05-06T12:26:02;100460.00;;;15.60
68911;BMP180;55953;51.650;-0.522;2023-05-06T12:28:33;100458.80;;;15.60
68911;BMP180;55953;51.650;-0.522;2023-05-06T12:31:21;100455.20;;;15.62
68911;BMP180;55953;51.650;-0.522;2023-05-06T12:33:50;100458.20;;;15.60
68911;BMP180;55953;51.650;-0.522;2023-05-06T12:36:19;100457.40;;;15.60
68911;BMP180;55953;51.650;-0.522;2023-05-06T12:38:53;100456.80;;;15.50
68911;BMP180;55953;51.650;-0.522;2023-05-06T12:41:23;100459.20;;;15.50
68911;BMP180;55953;51.650;-0.522;2023-05-06T12:43:51;100458.00;;;15.52
68911;BMP180;55953;51.650;-0.522;2023-05-06T12:46:19;100462.60;;;15.50
68911;BMP180;55953;51.650;-0.522;2023-05-06T12:48:58;100458.80;;;15.52
68911;BMP180;55953;51.650;-0.522;2023-05-06T12:51:27;100463.80;;;15.50
68911;BMP180;55953;51.650;-0.522;2023-05-06T12:53:57;100467.80;;;15.46
68911;BMP180;55953;51.650;-0.522;2023-05-06T12:56:25;100464.60;;;15.40
68911;BMP180;55953;51.650;-0.522;2023-05-06T12:59:00;100464.40;;;15.40
68911;BMP180;55953;51.650;-0.522;2023-05-06T13:01:29;100461.80;;;15.40
68911;BMP180;55953;51.650;-0.522;2023-05-06T13:03:58;100469.00;;;15.40
68911;BMP180;55953;51.650;-0.522;2023-05-06T13:06:26;100471.80;;;15.40
68911;BMP180;55953;51.650;-0.522;2023-05-06T13:08:54;100467.00;;;15.40
68911;BMP180;55953;51.650;-0.522;2023-05-06T13:11:22;100465.20;;;15.40
68911;BMP180;55953;51.650;-0.522;2023-05-06T13:13:51;100469.40;;;15.40
68911;BMP180;55953;51.650;-0.522;2023-05-06T13:16:19;100464.20;;;15.40
68911;BMP180;55953;51.650;-0.522;2023-05-06T13:18:48;100466.40;;;15.40
68911;BMP180;55953;51.650;-0.522;2023-05-06T13:21:15;100469.80;;;15.40
68911;BMP180;55953;51.650;-0.522;2023-05-06T13:23:43;100470.20;;;15.50
68911;BMP180;55953;51.650;-0.522;2023-05-06T13:26:14;100476.40;;;15.60
68911;BMP180;55953;51.650;-0.522;2023-05-06T13:28:43;100475.40;;;15.60
68911;BMP180;55953;51.650;-0.522;2023-05-06T13:31:11;100475.60;;;15.60
68911;BMP180;55953;51.650;-0.522;2023-05-06T13:33:39;100474.00;;;15.50
68911;BMP180;55953;51.650;-0.522;2023-05-06T13:36:07;100478.20;;;15.50
68911;BMP180;55953;51.650;-0.522;2023-05-06T13:38:35;100472.20;;;15.50
68911;BMP180;55953;51.650;-0.522;2023-05-06T13:41:03;100473.40;;;15.50
68911;BMP180;55953;51.650;-0.522;2023-05-06T13:43:31;100474.60;;;15.50
68911;BMP180;55953;51.650;-0.522;2023-05-06T13:45:58;100474.80;;;15.50
68911;BMP180;55953;51.650;-0.522;2023-05-06T13:48:26;100466.60;;;15.50
68911;BMP180;55953;51.650;-0.522;2023-05-06T13:50:55;100457.40;;;15.54
68911;BMP180;55953;51.650;-0.522;2023-05-06T13:53:23;100445.80;;;15.68
68911;BMP180;55953;51.650;-0.522;2023-05-06T13:55:50;100442.00;;;15.70
68911;BMP180;55953;51.650;-0.522;2023-05-06T13:58:18;100443.60;;;15.70
68911;BMP180;55953;51.650;-0.522;2023-05-06T14:00:46;100452.20;;;15.60
68911;BMP180;55953;51.650;-0.522;2023-05-06T14:03:15;100450.80;;;15.50
68911;BMP180;55953;51.650;-0.522;2023-05-06T14:05:44;100455.20;;;15.40
68911;BMP180;55953;51.650;-0.522;2023-05-06T14:08:13;100455.00;;;15.30
68911;BMP180;55953;51.650;-0.522;2023-05-06T14:10:41;100454.00;;;15.20
68911;BMP180;55953;51.650;-0.522;2023-05-06T14:13:09;100454.40;;;15.18
68911;BMP180;55953;51.650;-0.522;2023-05-06T14:15:38;100459.20;;;15.10
68911;BMP180;55953;51.650;-0.522;2023-05-06T14:18:06;100453.80;;;15.16
68911;BMP180;55953;51.650;-0.522;2023-05-06T14:20:34;100450.80;;;15.10
68911;BMP180;55953;51.650;-0.522;2023-05-06T14:23:04;100451.80;;;15.10